Flight Track Log - Related Links

Times and Time Zones

All times are in EDT time to prevent confusion due to time zone crossing. See the UAL5915 flight status page for this flight to view local times or setup timezone preferences in your user account.

Time Position Orientation Groundspeed Altitude Reporting Facility
EDT Latitude Longitude Course Direction KTS MPH feet Rate Location/Type
Thu 04:53:45 PM 36.1947 -95.9075 276° West 154 177 1,200  Level Kansas City Center
Thu 04:54:03 PM 36.1958 -95.9203 276° West 155 178 1,800 2,231 Climbing Kansas City Center
Thu 04:55:03 PM 36.1842 -95.9786 256° West 193 222 4,100 2,231 Climbing Kansas City Center
Thu 04:56:04 PM 36.1239 -95.9372 151° Southeast 298 343 6,300 2,284 Climbing Kansas City Center
Thu 04:57:17 PM 36.1144 -95.8169 96° East 291 335 9,200 1,985 Climbing Kansas City Center
Thu 04:58:17 PM 36.1028 -95.7061 97° East 315 362 10,700 1,392 Climbing Kansas City Center
Thu 04:59:22 PM 36.0872 -95.5778 98° East 367 422 12,100 1,440 Climbing Kansas City Center
Thu 05:00:22 PM 36.0722 -95.4442 98° East 389 448 13,700 1,623 Climbing Kansas City Center
Thu 05:01:24 PM 36.0567 -95.3058 98° East 405 466 15,400 1,659 Climbing Kansas City Center
Thu 05:02:25 PM 36.0406 -95.1672 98° East 409 471 17,100 1,820 Climbing Kansas City Center
Thu 05:02:53 PM 36.0297 -95.0794 99° East 410 472 18,100 1,636 Climbing Memphis Center
Thu 05:03:53 PM 36.0225 -94.9328 93° East 415 478 19,500 1,400 Climbing Memphis Center
Thu 05:04:53 PM 36.0281 -94.7842 87° East 426 490 20,900 1,450 Climbing Memphis Center
Thu 05:05:53 PM 36.0353 -94.6306 87° East 431 496 22,400 1,500 Climbing Memphis Center
Thu 05:06:53 PM 36.0406 -94.4769 88° East 436 502 23,900 1,450 Climbing Memphis Center
Thu 05:07:53 PM 36.0453 -94.3308 88° East 436 502 25,300 1,450 Climbing Memphis Center
Thu 05:08:53 PM 36.0500 -94.1822 88° East 431 496 26,800 1,350 Climbing Memphis Center
Thu 05:09:53 PM 36.0556 -94.0617 87° East 431 496 28,000 1,350 Climbing Memphis Center
Thu 05:10:53 PM 36.0564 -93.8975 90° East 431 496 29,500 1,400 Climbing Memphis Center
Thu 05:11:53 PM 36.0606 -93.7489 88° East 431 496 30,800 1,200 Climbing Memphis Center
Thu 05:12:53 PM 36.0644 -93.6025 88° East 431 496 31,900 900 Climbing Memphis Center
Thu 05:13:53 PM 36.0683 -93.4486 88° East 437 503 32,600 800 Climbing Memphis Center
Thu 05:14:53 PM 36.0742 -93.2922 87° East 442 509 33,500 950 Climbing Memphis Center
Thu 05:15:53 PM 36.0778 -93.1331 88° East 455 524 34,500 750 Climbing Memphis Center
Thu 05:16:53 PM 36.0811 -92.9767 88° East 460 529 35,000 250 Climbing Memphis Center
Thu 05:17:53 PM 36.0847 -92.8047 88° East 470 541 35,000  Level Memphis Center
Thu 05:18:53 PM 36.0878 -92.6325 89° East 482 555 35,000  Level Memphis Center
Thu 05:19:53 PM 36.0931 -92.4581 88° East 495 570 35,000 950 Level Memphis Center
Thu 05:20:53 PM 36.0978 -92.2886 88° East 495 570 36,900 1,000 Climbing Memphis Center
Thu 05:21:53 PM 36.1025 -92.1244 88° East 488 562 37,000 50 Climbing Memphis Center
Thu 05:22:53 PM 36.1067 -91.9575 88° East 483 556 37,000  Level Memphis Center
Thu 05:23:53 PM 36.1086 -91.7906 89° East 477 549 37,000  Level Memphis Center
Thu 05:24:53 PM 36.1147 -91.6211 87° East 477 549 37,000  Level Memphis Center
Thu 05:25:53 PM 36.1183 -91.4542 88° East 477 549 37,000  Level Memphis Center
Thu 05:26:53 PM 36.1219 -91.2819 88° East 477 549 37,000  Level Memphis Center
Thu 05:27:53 PM 36.1250 -91.1072 89° East 493 567 37,000  Level Memphis Center
Thu 05:28:53 PM 36.1303 -90.9353 88° East 498 573 37,000  Level Memphis Center
Thu 05:29:53 PM 36.1331 -90.7656 89° East 498 573 37,000  Level Memphis Center
Thu 05:30:53 PM 36.1356 -90.5958 89° East 493 567 37,000  Level Memphis Center
Thu 05:31:53 PM 36.1378 -90.4289 89° East 493 567 37,000  Level Memphis Center
Thu 05:32:53 PM 36.1397 -90.2594 89° East 493 567 37,000  Level Memphis Center
Thu 05:33:53 PM 36.1417 -90.0844 89° East 493 567 37,000  Level Memphis Center
Thu 05:34:53 PM 36.1453 -89.9072 89° East 499 574 37,000  Level Memphis Center
Thu 05:35:53 PM 36.1467 -89.7272 89° East 504 580 37,000  Level Memphis Center
Thu 05:36:53 PM 36.1456 -89.5447 90° East 518 596 37,000  Level Memphis Center
Thu 05:37:53 PM 36.1461 -89.3622 90° East 528 608 37,000  Level Memphis Center
Thu 05:38:53 PM 36.1489 -89.1797 89° East 528 608 37,000  Level Memphis Center
Thu 05:39:53 PM 36.1511 -88.9869 89° East 526 605 37,000  Level Memphis Center
Thu 05:40:53 PM 36.1531 -88.8172 89° East 511 588 37,000  Level Memphis Center
Thu 05:41:53 PM 36.1531 -88.6425 90° East 498 573 37,000  Level Memphis Center
Thu 05:42:53 PM 36.1544 -88.4675 89° East 498 573 37,000  Level Memphis Center
Thu 05:43:53 PM 36.1539 -88.2878 90° East 498 573 37,000  Level Memphis Center
Thu 05:44:53 PM 36.1531 -88.1308 90° East 509 586 37,000  Level Memphis Center
Thu 05:45:53 PM 36.1519 -87.9561 90° East 509 586 37,000  Level Memphis Center
Thu 05:46:53 PM 36.1486 -87.7867 91° East 494 568 37,000  Level Memphis Center
Thu 05:47:53 PM 36.1492 -87.6194 90° East 489 563 37,000  Level Memphis Center
Thu 05:48:53 PM 36.1472 -87.4397 91° East 483 556 37,000  Level Memphis Center
Thu 05:49:53 PM 36.1431 -87.2753 92° East 478 550 37,000  Level Memphis Center
Thu 05:50:53 PM 36.1411 -87.1161 91° East 472 543 37,000  Level Memphis Center
Thu 05:51:53 PM 36.1367 -86.9492 92° East 472 543 37,000  Level Memphis Center
Thu 05:52:53 PM 36.1339 -86.7772 91° East 482 555 37,000  Level Memphis Center
Thu 05:53:53 PM 36.1625 -86.6164 78° East 476 548 37,000  Level Memphis Center
Thu 05:54:53 PM 36.2333 -86.4742 58° Northeast 471 542 37,000  Level Memphis Center
Thu 05:55:53 PM 36.3039 -86.3319 58° Northeast 471 542 37,000  Level Memphis Center
Thu 05:56:53 PM 36.3742 -86.1892 59° Northeast 481 554 37,000  Level Memphis Center
Thu 05:57:53 PM 36.4403 -86.0492 60° Northeast 481 554 37,000  Level Memphis Center
Thu 05:58:53 PM 36.4994 -85.8989 64° Northeast 487 560 37,000  Level Memphis Center
Thu 05:59:53 PM 36.5358 -85.7547 73° East 477 549 37,000  Level Memphis Center
Thu 06:00:45 PM 36.5722 -85.6222 71° East 498 573 37,000  Level Indianapolis Center
Thu 06:01:47 PM 36.6347 -85.4336 68° East 490 564 37,000  Level Indianapolis Center
Thu 06:02:49 PM 36.7103 -85.2856 57° Northeast 499 574 37,000  Level Indianapolis Center
Thu 06:03:50 PM 36.7825 -85.1367 59° Northeast 500 575 37,000  Level Indianapolis Center
Thu 06:04:52 PM 36.8544 -84.9886 59° Northeast 498 573 37,000  Level Indianapolis Center
Thu 06:05:54 PM 36.9256 -84.8414 59° Northeast 493 567 37,000  Level Indianapolis Center
Thu 06:06:56 PM 36.9969 -84.6936 59° Northeast 492 566 37,000  Level Indianapolis Center
Thu 06:07:57 PM 37.0722 -84.5381 59° Northeast 485 558 37,000  Level Indianapolis Center
Thu 06:08:59 PM 37.1419 -84.3933 59° Northeast 482 555 37,000  Level Indianapolis Center
Thu 06:10:01 PM 37.2108 -84.2506 59° Northeast 478 550 37,000  Level Indianapolis Center
Thu 06:11:02 PM 37.2786 -84.1081 59° Northeast 473 544 37,000  Level Indianapolis Center
Thu 06:12:04 PM 37.3475 -83.9639 59° Northeast 477 549 37,000  Level Indianapolis Center
Thu 06:13:06 PM 37.4250 -83.7981 59° Northeast 470 541 37,000  Level Indianapolis Center
Thu 06:14:08 PM 37.4928 -83.6547 59° Northeast 471 542 37,000  Level Indianapolis Center
Thu 06:15:10 PM 37.5586 -83.5136 59° Northeast 465 535 37,000  Level Indianapolis Center
Thu 06:16:11 PM 37.6244 -83.3722 60° Northeast 466 536 37,000  Level Indianapolis Center
Thu 06:17:13 PM 37.6897 -83.2294 60° Northeast 466 536 37,000  Level Indianapolis Center
Thu 06:18:15 PM 37.7558 -83.0881 59° Northeast 464 534 37,000  Level Indianapolis Center
Thu 06:19:16 PM 37.8225 -82.9431 60° Northeast 469 540 37,000  Level Indianapolis Center
Thu 06:20:18 PM 37.8881 -82.8000 60° Northeast 467 537 37,000  Level Indianapolis Center
Thu 06:21:20 PM 37.9667 -82.6264 60° Northeast 480 552 37,000  Level Indianapolis Center
Thu 06:22:22 PM 38.0331 -82.4797 60° Northeast 478 550 37,000  Level Indianapolis Center
Thu 06:23:24 PM 38.0992 -82.3322 60° Northeast 479 551 37,000  Level Indianapolis Center
Thu 06:24:25 PM 38.1689 -82.1742 61° Northeast 478 550 37,000  Level Indianapolis Center
Thu 06:25:27 PM 38.2333 -82.0328 60° Northeast 466 536 37,000  Level Indianapolis Center
Thu 06:26:29 PM 38.2975 -81.8886 60° Northeast 467 537 37,000  Level Indianapolis Center
Thu 06:27:31 PM 38.3458 -81.7381 68° East 472 543 37,000  Level Indianapolis Center
Thu 06:28:32 PM 38.3431 -81.5722 91° East 473 544 37,000  Level Indianapolis Center
Thu 06:29:34 PM 38.3378 -81.4083 92° East 470 541 37,000  Level Indianapolis Center
Thu 06:30:36 PM 38.3306 -81.2100 93° East 471 542 37,000  Level Indianapolis Center
Thu 06:31:23 PM 38.3247 -81.0864 93° East 466 536 37,000  Level Washington Center
Thu 06:32:23 PM 38.3192 -80.9353 93° East 466 536 37,000  Level Washington Center
Thu 06:33:23 PM 38.3139 -80.7708 92° East 466 536 37,000  Level Washington Center
Thu 06:34:23 PM 38.3083 -80.6036 92° East 461 531 37,000 -100 Level Washington Center
Thu 06:35:23 PM 38.3067 -80.4419 91° East 461 531 36,800 -1,250 Descending Washington Center
Thu 06:36:23 PM 38.3386 -80.2719 76° East 455 524 34,500 -1,900 Descending Washington Center
Thu 06:37:23 PM 38.3697 -80.1097 76° East 460 529 33,000 -1,500 Descending Washington Center
Thu 06:38:23 PM 38.4025 -79.9608 74° East 454 522 31,500 -1,750 Descending Washington Center
Thu 06:39:23 PM 38.4394 -79.8011 74° East 454 522 29,500 -2,200 Descending Washington Center
Thu 06:40:23 PM 38.4758 -79.6522 73° East 466 536 27,100 -1,450 Descending Washington Center
Thu 06:41:23 PM 38.5078 -79.5025 75° East 459 528 26,600 -1,350 Descending Washington Center
Thu 06:42:23 PM 38.5397 -79.3556 74° East 441 507 24,400 -1,950 Descending Washington Center
Thu 06:43:23 PM 38.5650 -79.2056 78° East 428 493 22,700 -1,650 Descending Washington Center
Thu 06:44:23 PM 38.5881 -79.0606 78° East 428 493 21,100 -1,750 Descending Washington Center
Thu 06:45:23 PM 38.6086 -78.9233 79° East 415 478 19,200 -1,900 Descending Washington Center
Thu 06:46:23 PM 38.6353 -78.7944 75° East 393 452 17,300 -2,050 Descending Washington Center
Thu 06:47:23 PM 38.6636 -78.6653 74° East 378 435 15,100 -2,300 Descending Washington Center
Thu 06:48:23 PM 38.6939 -78.5414 73° East 367 422 12,700 -2,050 Descending Washington Center
Thu 06:49:23 PM 38.7217 -78.4228 73° East 355 409 11,000 -1,250 Descending Washington Center
Thu 06:50:23 PM 38.7794 -78.3533 43° Northeast 301 346 10,200 -1,000 Descending Washington Center
Thu 06:51:23 PM 38.8561 -78.2919 32° Northeast 293 337 9,000 -1,100 Descending Washington Center
Thu 06:52:23 PM 38.9322 -78.2361 30° Northeast 304 350 8,000 -1,000 Descending Washington Center
Thu 06:53:23 PM 39.0064 -78.1800 30° Northeast 309 356 7,000 -1,000 Descending Washington Center
Thu 06:54:23 PM 39.0828 -78.1211 31° Northeast 298 343 6,000 -950 Descending Washington Center
Thu 06:55:23 PM 39.1547 -78.0728 28° Northeast 293 337 5,100 -500 Descending Washington Center
Thu 06:56:23 PM 39.2142 -78.0106 39° Northeast 293 337 5,000 -50 Descending Washington Center
Thu 06:57:23 PM 39.2306 -77.9200 77° East 257 296 5,000  Level Washington Center
Thu 06:58:54 PM 39.2500 -77.8000 78° East 229 264 5,000  Level Potomac TRACON
Thu 06:59:48 PM 39.2500 -77.7167 90° East 221 254 5,000  Level Potomac TRACON
Thu 07:00:48 PM 39.2333 -77.6500 108° East 228 262 5,000  Level Potomac TRACON
Thu 07:01:48 PM 39.2500 -77.5667 75° East 240 276 5,000 50 Level Potomac TRACON
Thu 07:02:49 PM 39.2667 -77.4833 75° East 242 278 5,100 48 Climbing Potomac TRACON
Thu 07:03:54 PM 39.2167 -77.4667 166° South 163 188 5,100 -450 Level Potomac TRACON
Thu 07:04:49 PM 39.1667 -77.4667 180° South 171 197 4,200 -939 Descending Potomac TRACON
Thu 07:05:49 PM 39.1333 -77.4667 180° South 168 193 3,300 -800 Descending Potomac TRACON
Thu 07:06:49 PM 39.0833 -77.4667 180° South 170 196 2,600 -842 Descending Potomac TRACON
Thu 07:07:43 PM 39.0333 -77.4667 180° South 155 178 1,700 -1,000 Descending Potomac TRACON

Login

Don't have an account? Register now (free) for customized features, flight alerts, and more!